createdAt,value
2017-07-22T00:02:08.657Z,94.50
2017-07-22T00:06:55.287Z,94.50
2017-07-22T00:11:48.905Z,94.60
2017-07-22T00:16:35.805Z,94.30
2017-07-22T00:21:22.450Z,94.20
2017-07-22T00:26:09.289Z,93.90
2017-07-22T00:30:56.009Z,94.30
2017-07-22T00:35:42.669Z,94.40
2017-07-22T00:40:30.069Z,94.70
2017-07-22T00:45:16.713Z,94.70
2017-07-22T00:50:04.081Z,94.10
2017-07-22T00:54:50.711Z,94.10
2017-07-22T00:59:37.388Z,93.90
2017-07-22T01:04:24.999Z,93.50
2017-07-22T01:09:11.719Z,93.50
2017-07-22T01:13:58.327Z,93.10
2017-07-22T01:18:44.976Z,93.10
2017-07-22T01:23:31.602Z,93.10
2017-07-22T01:28:18.441Z,93.20
2017-07-22T01:33:05.843Z,93.50
2017-07-22T01:37:52.770Z,93.50
2017-07-22T01:42:39.434Z,93.70
2017-07-22T01:47:26.841Z,93.70
2017-07-22T01:52:13.452Z,93.70
2017-07-22T01:57:00.087Z,93.80
2017-07-22T02:01:46.702Z,93.80
2017-07-22T02:06:33.341Z,93.60
2017-07-22T02:11:20.943Z,93.50
2017-07-22T02:16:07.546Z,93.40
2017-07-22T02:20:54.165Z,93.40
2017-07-22T02:25:40.785Z,93.40
2017-07-22T02:30:27.449Z,93.50
2017-07-22T02:35:14.076Z,93.40
2017-07-22T02:40:00.692Z,93.30
2017-07-22T02:44:47.319Z,93.20
2017-07-22T02:49:34.727Z,92.60
2017-07-22T02:54:21.371Z,92.70
2017-07-22T02:59:08.068Z,92.10
2017-07-22T03:03:55.100Z,91.80
2017-07-22T03:08:41.758Z,91.80
2017-07-22T03:13:29.169Z,91.60
2017-07-22T03:18:15.906Z,91.60
2017-07-22T03:23:03.282Z,91.70
2017-07-22T03:27:49.916Z,91.50
2017-07-22T03:32:36.586Z,91.30
2017-07-22T03:37:23.961Z,91.30
2017-07-22T03:42:10.635Z,91.30
2017-07-22T03:46:57.547Z,92.10
2017-07-22T03:51:44.220Z,91.80
2017-07-22T03:56:30.877Z,91.50
2017-07-22T04:01:17.537Z,91.40
2017-07-22T04:06:04.881Z,90.80
2017-07-22T04:10:52.233Z,90.80
2017-07-22T04:15:38.859Z,90.80
2017-07-22T04:20:25.569Z,90.60
2017-07-22T04:25:12.207Z,90.40
2017-07-22T04:29:58.892Z,90.70
2017-07-22T04:34:53.365Z,89.80
2017-07-22T04:39:39.995Z,90.10
2017-07-22T04:44:26.810Z,91.10
2017-07-22T04:49:13.480Z,91.20
2017-07-22T04:54:00.162Z,90.80
2017-07-22T04:58:46.803Z,90.50
2017-07-22T05:03:34.208Z,90.50
2017-07-22T05:08:20.824Z,90.50
2017-07-22T05:13:07.486Z,90.40
2017-07-22T05:17:54.922Z,89.70
2017-07-22T05:22:42.332Z,89.20
2017-07-22T05:27:28.947Z,88.80
2017-07-22T05:32:16.284Z,87.90
2017-07-22T05:37:02.887Z,86.20
2017-07-22T05:41:49.524Z,87.30
2017-07-22T05:46:36.232Z,86.50
2017-07-22T05:51:22.848Z,85.70
2017-07-22T05:56:09.490Z,85.60
2017-07-22T06:00:56.122Z,85.40
2017-07-22T06:05:42.761Z,85.10
2017-07-22T06:10:30.174Z,86.70
2017-07-22T06:15:16.881Z,86.70
2017-07-22T06:20:03.607Z,86.60
2017-07-22T06:24:50.254Z,85.20
2017-07-22T06:29:37.010Z,84.60
2017-07-22T06:34:23.651Z,85.60
2017-07-22T06:39:10.318Z,85.30
2017-07-22T06:43:57.746Z,87.20
2017-07-22T06:48:44.508Z,87.20
2017-07-22T06:53:31.193Z,85.10
2017-07-22T06:58:18.798Z,83.30
2017-07-22T07:03:05.552Z,83.40
2017-07-22T07:07:52.210Z,83.80
2017-07-22T07:12:38.984Z,84.90
2017-07-22T07:17:25.625Z,84.10
2017-07-22T07:22:13.129Z,83.00
2017-07-22T07:26:59.968Z,82.30
2017-07-22T07:31:47.030Z,82.40
2017-07-22T07:36:34.437Z,83.40
2017-07-22T07:41:21.062Z,83.00
2017-07-22T07:46:07.779Z,82.10
2017-07-22T07:50:54.431Z,82.00
2017-07-22T07:55:41.834Z,82.40
2017-07-22T08:00:28.505Z,82.40
2017-07-22T08:05:15.608Z,82.00
2017-07-22T08:10:02.414Z,83.00
2017-07-22T08:14:49.073Z,79.60
2017-07-22T08:19:36.600Z,77.90
2017-07-22T08:24:24.036Z,79.00
2017-07-22T08:29:10.688Z,78.90
2017-07-22T08:33:57.768Z,76.50
2017-07-22T08:38:44.381Z,72.20
2017-07-22T08:43:31.059Z,74.40
2017-07-22T08:48:17.689Z,74.80
2017-07-22T08:53:04.349Z,72.20
2017-07-22T08:57:51.082Z,73.70
2017-07-22T09:02:38.037Z,70.20
2017-07-22T09:07:25.532Z,66.90
2017-07-22T09:12:12.181Z,66.90
2017-07-22T09:16:58.884Z,64.10
2017-07-22T09:21:45.541Z,67.50
2017-07-22T09:26:32.938Z,69.80
2017-07-22T09:31:19.563Z,69.70
2017-07-22T09:36:06.587Z,68.10
2017-07-22T09:40:53.208Z,71.40
2017-07-22T09:45:40.030Z,70.00
2017-07-22T09:50:26.872Z,70.90
2017-07-22T09:55:13.494Z,71.10
2017-07-22T10:00:00.191Z,70.30
2017-07-22T10:04:46.841Z,72.10
2017-07-22T10:09:33.853Z,71.70
2017-07-22T10:14:20.464Z,70.20
2017-07-22T10:19:07.111Z,69.20
2017-07-22T10:23:53.749Z,67.90
2017-07-22T10:28:41.137Z,66.10
2017-07-22T10:33:27.786Z,66.00
2017-07-22T10:38:14.435Z,65.70
2017-07-22T10:43:01.427Z,65.00
2017-07-22T10:47:48.185Z,66.20
2017-07-22T10:52:34.800Z,61.60
2017-07-22T10:57:22.152Z,58.70
2017-07-22T11:02:08.773Z,58.60
2017-07-22T11:06:55.403Z,62.20
2017-07-22T11:11:42.037Z,54.80
2017-07-22T11:16:29.013Z,58.50
2017-07-22T11:21:15.617Z,61.50
2017-07-22T11:26:02.245Z,56.90
2017-07-22T11:30:49.611Z,52.60
2017-07-22T11:35:36.258Z,52.20
2017-07-22T11:40:22.909Z,54.80
2017-07-22T11:45:09.945Z,56.30
2017-07-22T11:49:56.571Z,54.90
2017-07-22T11:54:43.205Z,50.10
2017-07-22T11:59:30.591Z,48.10
2017-07-22T12:04:17.224Z,48.00
2017-07-22T12:09:03.851Z,47.60
2017-07-22T12:13:50.884Z,46.90
2017-07-22T12:18:37.502Z,45.00
2017-07-22T12:23:24.110Z,44.40
2017-07-22T12:28:10.745Z,45.40
2017-07-22T12:32:57.403Z,44.20
2017-07-22T12:37:44.047Z,47.40
2017-07-22T12:42:30.681Z,44.30
2017-07-22T12:47:17.636Z,43.90
2017-07-22T12:52:04.262Z,47.40
2017-07-22T12:56:50.884Z,46.30
2017-07-22T13:01:37.505Z,50.60
2017-07-22T13:06:24.157Z,50.90
2017-07-22T13:11:10.794Z,53.00
2017-07-22T13:15:57.431Z,51.10
2017-07-22T13:20:44.063Z,52.20
2017-07-22T13:25:30.709Z,52.80
2017-07-22T13:30:17.362Z,50.00
2017-07-22T13:35:03.994Z,50.10
2017-07-22T13:39:51.488Z,53.50
2017-07-22T13:44:38.197Z,51.10
2017-07-22T13:49:25.219Z,52.60
2017-07-22T13:54:11.926Z,49.80
2017-07-22T13:58:58.576Z,49.80
2017-07-22T14:03:45.246Z,52.20
2017-07-22T14:08:31.887Z,52.30
2017-07-22T14:13:18.829Z,52.90
2017-07-22T14:18:05.823Z,52.70
2017-07-22T14:22:52.450Z,49.90
2017-07-22T14:27:39.040Z,50.30
2017-07-22T14:32:26.587Z,50.10
2017-07-22T14:37:13.308Z,50.00
2017-07-22T14:41:59.931Z,53.40
2017-07-22T14:46:46.767Z,49.90
2017-07-22T14:51:33.392Z,50.90
2017-07-22T14:56:20.066Z,50.70
2017-07-22T15:01:06.976Z,52.30
2017-07-22T15:05:53.600Z,48.70
2017-07-22T15:10:40.485Z,51.30
2017-07-22T15:15:27.105Z,50.20
2017-07-22T15:20:13.737Z,47.60
2017-07-22T15:25:00.385Z,51.00
2017-07-22T15:29:47.003Z,52.60
2017-07-22T15:34:33.641Z,50.00
2017-07-22T15:39:21.007Z,54.00
2017-07-22T15:44:07.676Z,53.80
2017-07-22T15:48:54.324Z,50.80
2017-07-22T15:53:41.704Z,49.40
2017-07-22T15:58:28.373Z,49.40
2017-07-22T16:03:15.024Z,50.20
2017-07-22T16:08:01.647Z,51.10
2017-07-22T16:12:48.398Z,54.90
2017-07-22T16:17:35.062Z,51.60
2017-07-22T16:22:21.710Z,52.30
2017-07-22T16:27:08.348Z,51.20
2017-07-22T16:31:54.983Z,50.40
2017-07-22T16:36:41.646Z,50.20
2017-07-22T16:41:29.134Z,50.80
2017-07-22T16:46:15.819Z,50.80
2017-07-22T16:51:03.185Z,49.40
2017-07-22T16:55:49.857Z,49.40
2017-07-22T17:00:36.502Z,50.50
2017-07-22T17:05:23.231Z,50.70
2017-07-22T17:10:09.931Z,50.00
2017-07-22T17:14:57.363Z,51.20
2017-07-22T17:19:44.020Z,51.10
2017-07-22T17:24:30.736Z,53.30
2017-07-22T17:29:17.428Z,54.20
2017-07-22T17:34:04.097Z,55.20
2017-07-22T17:38:50.981Z,55.60
2017-07-22T17:43:37.675Z,52.80
2017-07-22T17:48:24.370Z,54.40
2017-07-22T17:53:11.017Z,51.80
2017-07-22T17:57:57.855Z,53.30
2017-07-22T18:02:44.482Z,54.60
2017-07-22T18:07:31.862Z,54.80
2017-07-22T18:12:18.838Z,55.30
2017-07-22T18:17:05.467Z,54.20
2017-07-22T18:21:52.874Z,58.10
2017-07-22T18:26:39.517Z,57.40
2017-07-22T18:31:26.363Z,58.60
2017-07-22T18:36:13.798Z,60.60
2017-07-22T18:41:01.522Z,63.70
2017-07-22T18:45:48.190Z,63.60
2017-07-22T18:50:34.856Z,65.80
2017-07-22T18:55:21.482Z,66.90
2017-07-22T19:00:08.172Z,67.70
2017-07-22T19:04:54.901Z,68.20
2017-07-22T19:09:41.654Z,68.50
2017-07-22T19:14:28.674Z,69.30
2017-07-22T19:19:15.308Z,69.20
2017-07-22T19:24:01.994Z,70.60
2017-07-22T19:28:48.659Z,70.80
2017-07-22T19:33:36.133Z,72.10
2017-07-22T19:38:22.890Z,71.90
2017-07-22T19:43:09.649Z,73.60
2017-07-22T19:47:57.677Z,75.30
2017-07-22T19:52:44.489Z,75.20
2017-07-22T19:57:31.153Z,76.20
2017-07-22T20:02:18.690Z,78.30
2017-07-22T20:07:06.133Z,79.10
2017-07-22T20:11:53.733Z,78.50
2017-07-22T20:16:40.678Z,78.50
2017-07-22T20:21:27.360Z,79.80
2017-07-22T20:26:14.062Z,80.90
2017-07-22T20:31:00.703Z,81.60
2017-07-22T20:35:48.954Z,81.50
2017-07-22T20:40:35.622Z,82.60
2017-07-22T20:45:22.296Z,82.50
2017-07-22T20:50:08.985Z,82.40
2017-07-22T20:54:56.676Z,83.50
2017-07-22T20:59:43.493Z,83.50
2017-07-22T21:04:30.149Z,83.50
2017-07-22T21:09:16.873Z,84.10
2017-07-22T21:14:03.521Z,84.00
2017-07-22T21:18:51.253Z,82.90
2017-07-22T21:23:38.670Z,83.40
2017-07-22T21:28:25.708Z,84.10
2017-07-22T21:33:12.757Z,83.60
2017-07-22T21:38:00.197Z,85.10
2017-07-22T21:42:47.592Z,84.90
2017-07-22T21:47:34.203Z,84.80
2017-07-22T21:52:21.260Z,84.50
2017-07-22T21:57:07.849Z,85.00
2017-07-22T22:01:54.501Z,84.90
2017-07-22T22:06:41.180Z,85.40
2017-07-22T22:11:27.795Z,85.90
2017-07-22T22:16:14.768Z,86.30
2017-07-22T22:21:01.389Z,85.70
2017-07-22T22:25:48.017Z,86.60
2017-07-22T22:30:34.695Z,86.50
2017-07-22T22:35:21.456Z,87.40
2017-07-22T22:40:08.201Z,87.70
2017-07-22T22:44:55.595Z,87.80
2017-07-22T22:49:42.292Z,87.70
2017-07-22T22:54:28.961Z,87.80
2017-07-22T22:59:15.612Z,86.90
2017-07-22T23:04:02.255Z,87.40
2017-07-22T23:08:48.878Z,87.00
2017-07-22T23:13:35.488Z,88.00
2017-07-22T23:18:22.125Z,87.90
2017-07-22T23:23:08.737Z,88.90
2017-07-22T23:27:55.687Z,89.30
2017-07-22T23:32:42.361Z,90.20
2017-07-22T23:37:28.995Z,90.50
2017-07-22T23:42:15.640Z,90.60
2017-07-22T23:47:02.313Z,90.90
2017-07-22T23:51:50.119Z,90.90
2017-07-22T23:56:36.729Z,90.90
